Airfield :
LOGIN :

Register | Disclaimer

   EN    FR    IT 

 










Legend :    VFR   Marginal VFR   IFR   Intensive IFR   Very Intensive IFR
Visi :
Ceiling :
>= 8 km
>= 3000ft
5 to 8 km
1000 to 3000 ft
1500m to 5 km
500 to 1000 ft
800 to 1500m
200 to 500 ft
< 800m
< 200 ft
Symbols :   Thunderstorms  Fog  Heavy snow  Heavy precipitations  Wind > 20 kt
SIGMETs :     Misc.  Thunderstorms  Icing  Turbulence  Mountain Waves  Volcanic Ashes






- Airport Elevation : 13 ft
- IATA code : LYX


EGMD - Lydd

CURRENT METAR :
  • 211520Z 23024KT 9999 FEW018 SCT024 BKN030 10/07 Q1024

EXPIRED METARs :
  • 211450Z 23023KT 9999 BKN021 10/07 Q1024
  • 211420Z 23024KT 9999 FEW016 BKN024 10/07 Q1024
  • 211350Z 23024KT 9999 SCT015 BKN040 10/08 Q1024
  • 211320Z 23022KT 9999 SCT013 BKN034 10/08 Q1024
  • 211250Z 23023KT 9999 SCT014 SCT019 10/08 Q1025
  • 211220Z 23019KT 9999 SCT027 BKN033 10/07 Q1025

TAF TAF EGMD
Valid from the 21 at 15:00 until the 22 at 00:00 UTC


211407Z 2115/2124 24025KT 9999 BKN020
TEMPO 2115/2124 24027G40KT
PROB40
TEMPO 2117/2124 8000 -RA BKN012
ATIS : +44 1797 322 422



MET'MAP, your aeronautical weather chart ! - Copyright ORBIFLY December 2007 - Disclaimer

ORBIFLY MET'MAP TEAM :

Programming & Development : Alexandra Zaïnal
Concept & original design : Baudouin d'Aumeries
Assistance for programming : Marc-Olivier Méhu
Technical & hardware support : Manuel Goepfert

Contact : metmap@orbifly.com




SOURCES & CREDITS :

   NOAA